Time;durP1;ratioP1;P1;durP2;ratioP2;P2;SDS_P1;SDS_P2;PMS_P1;PMS_P2;Temp;Humidity;BMP_temperature;BMP_pressure;BME280_temperature;BME280_humidity;BME280_pressure;Samples;Min_cycle;Max_cycle;Signal;HPM_P1;HPM_P2
2022/07/04 00:00:14;;;;;;;4.13;1.55;;;25.20;76.40;;;;;;5138297;27;20082;-62
2022/07/04 00:02:41;;;;;;;3.83;1.52;;;24.90;79.00;;;;;;5156173;27;20114;-61
2022/07/04 00:05:10;;;;;;;3.40;1.27;;;25.10;79.10;;;;;;5155980;27;20030;-62
2022/07/04 00:07:36;;;;;;;5.88;1.73;;;25.30;76.10;;;;;;5121485;27;20484;-62
2022/07/04 00:10:06;;;;;;;3.42;1.48;;;25.20;76.40;;;;;;5156575;27;20054;-62
2022/07/04 00:12:31;;;;;;;4.38;1.58;;;25.00;74.70;;;;;;5138303;27;20049;-62
2022/07/04 00:14:57;;;;;;;3.60;1.48;;;25.10;75.70;;;;;;5155651;27;20039;-62
2022/07/04 00:17:23;;;;;;;3.85;1.50;;;25.10;79.00;;;;;;5134186;27;20070;-62
2022/07/04 00:19:48;;;;;;;3.63;1.42;;;24.90;75.80;;;;;;5117202;27;20143;-61
2022/07/04 00:22:14;;;;;;;5.65;1.70;;;25.00;75.80;;;;;;5135923;27;20055;-62
2022/07/04 00:24:40;;;;;;;3.67;1.60;;;25.10;75.60;;;;;;5135845;27;20043;-62
2022/07/04 00:27:06;;;;;;;3.95;1.80;;;24.80;78.60;;;;;;5129908;27;20043;-62
2022/07/04 00:29:32;;;;;;;4.47;1.50;;;25.00;75.80;;;;;;5137817;27;20074;-61
2022/07/04 00:31:59;;;;;;;4.25;1.67;;;24.90;75.90;;;;;;5133414;27;20091;-62
2022/07/04 00:34:24;;;;;;;5.22;1.38;;;24.80;75.90;;;;;;5135494;27;20043;-62
2022/07/04 00:36:50;;;;;;;3.28;1.52;;;25.00;75.70;;;;;;5141971;27;20095;-61
2022/07/04 00:39:16;;;;;;;6.18;1.52;;;25.10;78.90;;;;;;5137351;27;20041;-61
2022/07/04 00:41:42;;;;;;;7.07;1.70;;;24.90;75.70;;;;;;5155940;27;20099;-61
2022/07/04 00:44:09;;;;;;;4.20;1.67;;;25.10;75.70;;;;;;5137529;27;20051;-62
2022/07/04 00:46:34;;;;;;;3.53;1.40;;;24.80;75.90;;;;;;5137683;27;20050;-61
2022/07/04 00:49:00;;;;;;;4.25;1.45;;;25.00;75.50;;;;;;5152726;27;20046;-61
2022/07/04 00:51:26;;;;;;;5.18;1.73;;;25.00;75.70;;;;;;5155428;27;20043;-62
2022/07/04 00:53:55;;;;;;;5.55;1.80;;;24.90;75.60;;;;;;5135892;27;20094;-62
2022/07/04 00:56:22;;;;;;;5.40;1.63;;;24.90;76.00;;;;;;5135883;27;20046;-61
2022/07/04 00:58:47;;;;;;;4.75;1.60;;;25.00;76.00;;;;;;5135678;27;20045;-62
2022/07/04 01:01:13;;;;;;;6.00;1.83;;;25.00;75.80;;;;;;5119578;27;20042;-62
2022/07/04 01:03:39;;;;;;;4.28;1.70;;;25.00;75.40;;;;;;5155895;27;20034;-62
2022/07/04 01:06:05;;;;;;;6.88;1.33;;;25.00;78.70;;;;;;5137017;27;20054;-62
2022/07/04 01:08:30;;;;;;;4.00;1.50;;;24.70;75.50;;;;;;5118681;27;20467;-62
2022/07/04 01:10:56;;;;;;;7.53;1.85;;;24.90;75.50;;;;;;5136682;27;20545;-61
2022/07/04 01:13:23;;;;;;;6.40;1.63;;;24.80;75.60;;;;;;5155594;27;20046;-62
2022/07/04 01:15:48;;;;;;;4.30;1.58;;;24.90;78.70;;;;;;5119795;27;20121;-62
2022/07/04 01:18:14;;;;;;;4.75;1.50;;;25.00;75.60;;;;;;5155724;27;20204;-62
2022/07/04 01:20:40;;;;;;;3.75;1.55;;;24.80;75.40;;;;;;5135111;27;20046;-63
2022/07/04 01:23:06;;;;;;;3.72;1.60;;;24.70;75.40;;;;;;5136271;27;20046;-62
2022/07/04 01:25:32;;;;;;;5.18;1.70;;;24.70;75.40;;;;;;5155150;27;20386;-62
2022/07/04 01:27:59;;;;;;;3.47;1.40;;;24.80;78.50;;;;;;5155537;27;20039;-62
2022/07/04 01:30:24;;;;;;;5.80;1.60;;;24.60;75.60;;;;;;5135681;27;20046;-62
2022/07/04 01:32:50;;;;;;;4.22;1.50;;;24.60;78.50;;;;;;5154861;27;20083;-61
2022/07/04 01:35:16;;;;;;;3.50;1.45;;;24.80;75.40;;;;;;5155419;27;20035;-61
2022/07/04 01:37:41;;;;;;;7.20;1.50;;;24.60;78.60;;;;;;5136970;27;20121;-61
2022/07/04 01:40:08;;;;;;;5.40;1.60;;;24.60;78.20;;;;;;5153591;27;20042;-61
2022/07/04 01:42:33;;;;;;;5.03;1.80;;;24.80;78.40;;;;;;5132366;27;20478;-62
2022/07/04 01:44:59;;;;;;;4.30;1.58;;;25.00;75.50;;;;;;5134267;28;20059;-62
2022/07/04 01:47:25;;;;;;;4.00;1.58;;;24.80;75.50;;;;;;5139623;27;20039;-61
2022/07/04 01:49:50;;;;;;;5.50;1.80;;;24.60;78.30;;;;;;5119309;27;20111;-62
2022/07/04 01:52:16;;;;;;;4.90;1.60;;;24.80;78.30;;;;;;5153374;27;20149;-62
2022/07/04 01:54:42;;;;;;;4.53;1.90;;;24.70;78.20;;;;;;5152859;27;20103;-62
2022/07/04 01:57:07;;;;;;;3.00;1.42;;;24.40;75.10;;;;;;5154740;27;20054;-61
2022/07/04 02:02:17;;;;;;;4.35;1.60;;;24.80;74.30;;;;;;5153852;27;20039;-61
2022/07/04 02:04:43;;;;;;;3.88;1.58;;;24.80;75.30;;;;;;5154242;27;20118;-62
2022/07/04 02:07:09;;;;;;;4.32;1.60;;;24.60;78.50;;;;;;5154490;27;20031;-62
2022/07/04 02:09:34;;;;;;;8.13;1.80;;;24.70;75.20;;;;;;5155131;27;20458;-63
2022/07/04 02:14:44;;;;;;;5.75;1.70;;;24.60;74.10;;;;;;5138992;27;20043;-62
2022/07/04 02:17:11;;;;;;;4.57;1.45;;;24.60;75.10;;;;;;5136464;27;20053;-62
2022/07/04 02:19:37;;;;;;;2.67;1.33;;;24.50;78.00;;;;;;5139450;27;20067;-62
2022/07/04 02:22:03;;;;;;;5.47;1.73;;;24.40;75.10;;;;;;5157973;27;20054;-61
2022/07/04 02:24:29;;;;;;;5.32;1.63;;;24.60;78.00;;;;;;5156046;27;20051;-62
2022/07/04 02:26:54;;;;;;;6.07;1.83;;;24.50;75.00;;;;;;5158681;27;20172;-61
2022/07/04 02:29:20;;;;;;;5.72;1.85;;;24.40;78.00;;;;;;5158752;27;20072;-62
2022/07/04 02:31:46;;;;;;;4.57;1.67;;;24.70;75.20;;;;;;5159066;27;20039;-62
2022/07/04 02:34:11;;;;;;;6.40;1.73;;;24.60;75.00;;;;;;5135787;27;20131;-62
2022/07/04 02:36:37;;;;;;;4.30;1.55;;;24.60;75.10;;;;;;5148065;27;20086;-62
2022/07/04 02:39:04;;;;;;;4.90;1.70;;;24.70;75.00;;;;;;5138307;27;20474;-62
2022/07/04 02:41:31;;;;;;;4.97;1.80;;;24.50;77.90;;;;;;5138262;27;20118;-62
2022/07/04 02:43:57;;;;;;;4.45;1.77;;;;;;;;;;5151223;27;20046;-68
2022/07/04 02:46:23;;;;;;;4.32;1.73;;;24.40;78.00;;;;;;5156683;27;20042;-62
2022/07/04 02:48:49;;;;;;;4.18;1.60;;;24.40;78.20;;;;;;5139722;27;20039;-62
2022/07/04 02:51:14;;;;;;;5.72;1.95;;;24.40;74.90;;;;;;5158355;27;20078;-62
2022/07/04 02:53:40;;;;;;;4.97;1.42;;;24.40;74.80;;;;;;5157601;27;20045;-62
2022/07/04 02:56:06;;;;;;;7.68;1.60;;;24.50;75.00;;;;;;5156366;27;20038;-61
2022/07/04 02:58:32;;;;;;;7.90;1.55;;;24.50;74.80;;;;;;5157721;27;20043;-62
2022/07/04 03:00:58;;;;;;;4.40;1.40;;;24.60;74.90;;;;;;5139758;27;20069;-62
2022/07/04 03:03:23;;;;;;;5.28;1.48;;;24.20;74.70;;;;;;5157814;27;20126;-62
2022/07/04 03:05:49;;;;;;;4.15;1.88;;;24.30;77.70;;;;;;5138352;27;20114;-62
2022/07/04 03:08:15;;;;;;;3.80;1.67;;;24.50;77.80;;;;;;5138822;27;20122;-62
2022/07/04 03:10:40;;;;;;;4.82;1.70;;;24.20;77.80;;;;;;5157450;27;20049;-62
2022/07/04 03:13:06;;;;;;;3.70;1.60;;;24.40;77.80;;;;;;5139412;27;20039;-61
2022/07/04 03:15:32;;;;;;;6.65;1.52;;;24.20;74.60;;;;;;5158331;27;20039;-62
2022/07/04 03:17:58;;;;;;;5.05;1.50;;;24.40;77.80;;;;;;5137994;27;20031;-63
2022/07/04 03:20:23;;;;;;;4.93;1.30;;;24.70;77.90;;;;;;5122107;27;20551;-62
2022/07/04 03:22:50;;;;;;;4.32;1.55;;;24.60;74.90;;;;;;5137131;27;20107;-62
2022/07/04 03:25:16;;;;;;;4.18;1.60;;;24.50;74.90;;;;;;5137150;27;20445;-62
2022/07/04 03:27:41;;;;;;;5.22;1.25;;;24.30;74.70;;;;;;5135515;27;20043;-62
2022/07/04 03:30:07;;;;;;;3.28;1.30;;;24.50;74.70;;;;;;5135300;27;20043;-62
2022/07/04 03:32:33;;;;;;;3.00;1.98;;;24.30;77.60;;;;;;5136854;27;20175;-62
2022/07/04 03:35:00;;;;;;;7.18;2.03;;;24.50;74.10;;;;;;5135782;27;20448;-62
2022/07/04 03:37:25;;;;;;;3.15;1.40;;;24.30;77.50;;;;;;5135806;27;20377;-62
2022/07/04 03:39:51;;;;;;;5.50;1.70;;;24.40;74.60;;;;;;5136006;27;20039;-62
2022/07/04 03:42:17;;;;;;;5.25;1.60;;;24.30;74.70;;;;;;5136649;27;20051;-61
2022/07/04 03:44:42;;;;;;;5.00;1.60;;;24.30;74.60;;;;;;5136376;27;20039;-62
2022/07/04 03:47:08;;;;;;;4.07;1.77;;;24.40;77.70;;;;;;5136642;27;20035;-62
2022/07/04 03:49:34;;;;;;;5.00;1.50;;;24.60;77.70;;;;;;5132856;27;20105;-62
2022/07/04 03:52:00;;;;;;;5.75;1.60;;;24.60;74.80;;;;;;5136395;27;20393;-61
2022/07/04 03:54:28;;;;;;;3.33;1.42;;;24.50;74.70;;;;;;5136366;27;20989;-62
2022/07/04 03:56:54;;;;;;;4.93;1.45;;;24.50;77.60;;;;;;5136542;27;20378;-62
2022/07/04 03:59:20;;;;;;;5.82;2.00;;;24.60;74.60;;;;;;5135215;27;20039;-61
2022/07/04 04:01:45;;;;;;;5.65;1.75;;;24.50;74.60;;;;;;5134559;27;20051;-62
2022/07/04 04:06:55;;;;;;;3.45;1.55;;;24.70;73.70;;;;;;5135342;27;20515;-62
2022/07/04 04:09:22;;;;;;;7.97;2.10;;;24.40;74.40;;;;;;5132120;27;20156;-61
2022/07/04 04:11:48;;;;;;;3.83;1.60;;;24.40;77.50;;;;;;5134993;27;20488;-62
2022/07/04 04:14:13;;;;;;;4.28;1.63;;;24.60;74.40;;;;;;5136146;27;20046;-62
2022/07/04 04:16:39;;;;;;;6.45;1.73;;;24.70;74.70;;;;;;5116766;27;20047;-62
2022/07/04 04:19:05;;;;;;;4.13;1.67;;;24.70;77.30;;;;;;5135709;27;20050;-62
2022/07/04 04:21:30;;;;;;;4.40;2.00;;;24.90;77.40;;;;;;5152938;27;20051;-62
2022/07/04 04:23:56;;;;;;;3.50;1.63;;;24.50;74.10;;;;;;5155413;27;20083;-62
2022/07/04 04:26:22;;;;;;;3.90;1.60;;;24.80;77.30;;;;;;5155362;27;20119;-62
2022/07/04 04:28:47;;;;;;;4.32;1.73;;;24.80;77.70;;;;;;5156426;27;20035;-61
2022/07/04 04:31:14;;;;;;;5.40;1.95;;;24.90;74.50;;;;;;5154758;27;20407;-62
2022/07/04 04:33:40;;;;;;;3.67;1.50;;;24.60;77.20;;;;;;5152332;27;20034;-62
2022/07/04 04:36:06;;;;;;;5.47;1.95;;;24.60;74.30;;;;;;5135748;27;20151;-62
2022/07/04 04:38:32;;;;;;;4.13;1.83;;;24.60;74.00;;;;;;5135432;27;20132;-62
2022/07/04 04:40:57;;;;;;;3.97;1.60;;;24.70;77.20;;;;;;5135209;27;20455;-62
2022/07/04 04:43:23;;;;;;;7.05;2.20;;;24.90;74.40;;;;;;5122910;27;20488;-61
2022/07/04 04:45:49;;;;;;;3.45;1.52;;;24.80;74.20;;;;;;5156038;27;20046;-62
2022/07/04 04:48:15;;;;;;;3.38;1.58;;;24.80;74.30;;;;;;5156187;27;20047;-62
2022/07/04 04:50:40;;;;;;;3.85;1.52;;;24.90;74.20;;;;;;5154991;27;20030;-62
2022/07/04 04:53:06;;;;;;;3.38;1.48;;;25.00;74.40;;;;;;5133368;27;20476;-62
2022/07/04 04:55:32;;;;;;;3.55;1.50;;;24.90;74.20;;;;;;5131985;27;20043;-62
2022/07/04 04:57:58;;;;;;;4.30;1.45;;;24.70;77.10;;;;;;5135276;27;20049;-61
2022/07/04 05:00:23;;;;;;;3.30;1.50;;;25.30;77.30;;;;;;5117856;27;20051;-61
2022/07/04 05:02:49;;;;;;;4.38;1.83;;;25.30;74.90;;;;;;5136924;27;20476;-62
2022/07/04 05:05:15;;;;;;;3.65;1.60;;;25.20;73.60;;;;;;5153454;27;20038;-62
2022/07/04 05:07:40;;;;;;;4.07;1.45;;;25.30;73.50;;;;;;5155872;27;20041;-62
2022/07/04 05:10:07;;;;;;;3.55;1.58;;;25.60;73.30;;;;;;5155849;27;20065;-61
2022/07/04 05:12:33;;;;;;;5.20;1.75;;;25.70;72.50;;;;;;5155504;27;20042;-62
2022/07/04 05:14:58;;;;;;;5.50;2.15;;;25.80;72.70;;;;;;5154197;27;20042;-62
2022/07/04 05:17:24;;;;;;;4.80;1.70;;;26.20;72.90;;;;;;5155628;27;20046;-62
2022/07/04 05:19:50;;;;;;;4.00;1.45;;;26.40;72.50;;;;;;5155238;27;20527;-62
2022/07/04 05:22:16;;;;;;;5.68;1.63;;;26.30;72.20;;;;;;5155628;27;20042;-62
2022/07/04 05:24:42;;;;;;;5.53;1.77;;;26.50;72.10;;;;;;5140749;27;20464;-69
2022/07/04 05:27:07;;;;;;;5.40;2.10;;;26.50;72.10;;;;;;5153239;27;20068;-69
2022/07/04 05:29:33;;;;;;;4.95;1.60;;;26.60;71.90;;;;;;5155046;27;20038;-68
2022/07/04 05:31:59;;;;;;;7.07;2.22;;;26.90;72.10;;;;;;5119265;27;20050;-69
2022/07/04 05:34:25;;;;;;;6.05;1.90;;;26.60;71.50;;;;;;5154474;27;20042;-69
2022/07/04 05:36:50;;;;;;;6.40;2.08;;;26.90;71.70;;;;;;5153315;27;20051;-68
2022/07/04 05:39:16;;;;;;;4.88;1.88;;;27.00;71.10;;;;;;5155286;27;20037;-69
2022/07/04 05:41:42;;;;;;;5.05;1.60;;;26.80;70.70;;;;;;5154879;27;20039;-69
2022/07/04 05:44:08;;;;;;;4.65;1.73;;;27.20;71.20;;;;;;5136549;27;20050;-62
2022/07/04 05:46:34;;;;;;;4.35;1.30;;;27.10;70.90;;;;;;5153952;27;20031;-62
2022/07/04 05:48:59;;;;;;;4.20;1.52;;;27.30;71.20;;;;;;5155836;27;20043;-62
2022/07/04 05:51:25;;;;;;;4.68;1.70;;;27.50;71.20;;;;;;5155148;27;20117;-62
2022/07/04 05:53:51;;;;;;;5.15;1.63;;;27.60;71.10;;;;;;5157950;27;20071;-68
2022/07/04 05:56:16;;;;;;;3.63;1.70;;;27.60;71.00;;;;;;5159271;27;20039;-66
2022/07/04 05:58:42;;;;;;;4.25;1.50;;;28.00;71.10;;;;;;5157734;27;20042;-68
2022/07/04 06:01:08;;;;;;;5.18;1.73;;;27.70;70.80;;;;;;5159447;27;20047;-69
2022/07/04 06:03:37;;;;;;;6.57;1.90;;;27.70;70.50;;;;;;5123586;27;20053;-69
2022/07/04 06:06:03;;;;;;;4.82;1.60;;;27.60;70.50;;;;;;5159433;27;20039;-68
2022/07/04 06:08:29;;;;;;;4.53;1.50;;;27.90;70.90;;;;;;5156718;27;20049;-69
2022/07/04 06:10:55;;;;;;;6.32;1.65;;;27.70;70.30;;;;;;5158755;27;20039;-69
2022/07/04 06:13:21;;;;;;;4.85;1.48;;;27.60;70.40;;;;;;5140307;27;20038;-68
2022/07/04 06:15:47;;;;;;;4.13;1.80;;;27.70;70.50;;;;;;5158258;27;20073;-68
2022/07/04 06:18:13;;;;;;;7.18;1.88;;;27.40;70.50;;;;;;5156401;27;20581;-69
2022/07/04 06:20:42;;;;;;;3.95;1.35;;;27.40;70.70;;;;;;5155910;27;20583;-69
2022/07/04 06:23:08;;;;;;;4.00;1.42;;;27.50;69.80;;;;;;5140407;27;20424;-68
2022/07/04 06:25:34;;;;;;;5.60;1.80;;;27.10;70.30;;;;;;5140309;27;20053;-68
2022/07/04 06:28:00;;;;;;;3.92;1.70;;;27.30;70.50;;;;;;5158928;27;20039;-68
2022/07/04 06:30:26;;;;;;;5.30;1.80;;;27.30;70.80;;;;;;5138784;27;20117;-66
2022/07/04 06:32:56;;;;;;;4.97;1.85;;;27.30;71.00;;;;;;5158718;27;20114;-70
2022/07/04 06:35:44;;;;;;;4.72;1.70;;;27.50;69.80;;;;;;5158080;27;20468;-69
2022/07/04 06:38:11;;;;;;;6.00;1.88;;;27.30;71.30;;;;;;5158720;27;20053;-70
2022/07/04 06:40:37;;;;;;;6.82;1.70;;;27.30;71.40;;;;;;5140178;27;20066;-69
2022/07/04 06:43:03;;;;;;;4.43;1.70;;;27.20;70.90;;;;;;5122084;27;20047;-68
2022/07/04 06:45:30;;;;;;;4.75;1.83;;;27.20;70.90;;;;;;5158116;27;20123;-69
2022/07/04 06:47:55;;;;;;;6.20;2.13;;;27.30;71.30;;;;;;5155315;27;20035;-69
2022/07/04 06:50:21;;;;;;;4.97;1.98;;;27.40;71.30;;;;;;5157597;27;20054;-70
2022/07/04 06:52:47;;;;;;;6.03;1.80;;;27.50;71.40;;;;;;5157400;27;20536;-66
2022/07/04 06:55:13;;;;;;;5.05;1.67;;;27.50;71.10;;;;;;5158124;27;20473;-62
2022/07/04 06:57:39;;;;;;;3.72;1.65;;;27.50;71.00;;;;;;5138818;27;20039;-67
2022/07/04 07:00:06;;;;;;;4.45;1.58;;;27.50;71.20;;;;;;5135089;27;20496;-69
2022/07/04 07:02:33;;;;;;;3.63;1.60;;;27.60;70.90;;;;;;5147903;27;20065;-71
2022/07/04 07:04:59;;;;;;;3.03;1.38;;;27.70;71.50;;;;;;5139759;27;20039;-70
2022/07/04 07:07:26;;;;;;;3.85;1.50;;;27.80;71.40;;;;;;5158235;27;20492;-69
2022/07/04 07:09:53;;;;;;;4.28;1.55;;;28.10;71.40;;;;;;5157486;27;20042;-70
2022/07/04 07:12:19;;;;;;;4.40;1.60;;;27.60;71.30;;;;;;5139480;27;20047;-71
2022/07/04 07:14:45;;;;;;;3.65;1.50;;;27.90;71.00;;;;;;5138332;27;20062;-71
2022/07/04 07:17:10;;;;;;;6.95;1.67;;;27.90;71.20;;;;;;5157295;27;20043;-69
2022/07/04 07:19:36;;;;;;;7.50;1.80;;;28.00;71.00;;;;;;5156168;27;20039;-70
2022/07/04 07:22:02;;;;;;;5.90;1.77;;;28.00;70.90;;;;;;5156929;27;20050;-66
2022/07/04 07:24:30;;;;;;;5.93;1.92;;;28.10;70.80;;;;;;5116792;27;20047;-61
2022/07/04 07:26:56;;;;;;;9.00;2.50;;;28.10;71.10;;;;;;5137026;27;20035;-61
2022/07/04 07:29:22;;;;;;;5.45;2.13;;;28.10;71.00;;;;;;5137069;27;20395;-62
2022/07/04 07:31:48;;;;;;;4.25;1.77;;;28.40;71.10;;;;;;5155217;27;20047;-61
2022/07/04 07:34:14;;;;;;;4.82;1.80;;;28.30;70.70;;;;;;5134253;27;20043;-61
2022/07/04 07:36:40;;;;;;;6.78;2.10;;;28.20;70.90;;;;;;5150509;27;20400;-61
2022/07/04 07:39:05;;;;;;;5.78;2.25;;;28.10;70.60;;;;;;5157563;27;20031;-61
2022/07/04 07:41:31;;;;;;;4.80;2.00;;;28.20;70.90;;;;;;5137993;27;20587;-62
2022/07/04 07:43:57;;;;;;;3.58;1.80;;;28.20;70.80;;;;;;5154523;27;20039;-67
2022/07/04 07:46:22;;;;;;;5.10;1.90;;;28.40;71.00;;;;;;5104652;27;20039;-68
2022/07/04 07:48:48;;;;;;;4.75;2.00;;;28.60;70.90;;;;;;5157330;27;20046;-62
2022/07/04 07:51:15;;;;;;;5.90;2.17;;;28.20;71.00;;;;;;5156174;27;20083;-62
2022/07/04 07:53:41;;;;;;;3.78;1.85;;;28.40;71.10;;;;;;5138361;27;20054;-62
2022/07/04 07:56:07;;;;;;;5.25;1.98;;;28.20;71.30;;;;;;5155925;27;20043;-62
2022/07/04 07:58:33;;;;;;;7.47;2.03;;;28.40;71.00;;;;;;5156499;27;20039;-62
2022/07/04 08:00:59;;;;;;;9.63;2.33;;;28.10;71.00;;;;;;5157131;27;20117;-62
2022/07/04 08:06:11;;;;;;;10.10;2.50;;;28.10;69.60;;;;;;5135054;27;20504;-67
2022/07/04 08:08:37;;;;;;;8.15;2.00;;;28.00;70.50;;;;;;5136799;27;20043;-62
2022/07/04 08:11:03;;;;;;;7.70;2.63;;;28.10;70.70;;;;;;5137959;27;20113;-68
2022/07/04 08:13:29;;;;;;;7.57;2.22;;;27.80;70.50;;;;;;5156763;27;20042;-68
2022/07/04 08:15:55;;;;;;;7.90;2.72;;;28.00;71.30;;;;;;5135117;27;20031;-68
2022/07/04 08:18:22;;;;;;;5.20;2.35;;;28.00;71.40;;;;;;5104246;27;20035;-66
2022/07/04 08:20:49;;;;;;;8.10;2.70;;;27.90;71.40;;;;;;5156211;27;20488;-67
2022/07/04 08:23:15;;;;;;;6.85;2.35;;;27.80;71.70;;;;;;5137903;27;20108;-63
2022/07/04 08:25:40;;;;;;;8.13;2.30;;;27.40;71.30;;;;;;5149700;27;20416;-62
2022/07/04 08:28:06;;;;;;;6.95;2.00;;;27.70;71.40;;;;;;5154758;27;20072;-61
2022/07/04 08:30:32;;;;;;;6.95;2.22;;;27.60;71.30;;;;;;5132802;27;20035;-68
2022/07/04 08:32:58;;;;;;;7.10;2.22;;;27.20;71.00;;;;;;5083236;27;20051;-68
2022/07/04 08:35:24;;;;;;;6.53;2.10;;;27.20;71.20;;;;;;5117499;27;20043;-62
2022/07/04 08:37:53;;;;;;;6.95;1.90;;;27.20;71.10;;;;;;5144041;27;20134;-62
2022/07/04 08:40:23;;;;;;;8.75;2.22;;;27.20;71.30;;;;;;5132371;27;20063;-62
2022/07/04 08:42:49;;;;;;;7.35;2.17;;;27.20;71.30;;;;;;5135089;27;20121;-62
2022/07/04 08:45:16;;;;;;;6.00;2.15;;;27.00;71.60;;;;;;5135828;27;20074;-63
2022/07/04 08:47:42;;;;;;;4.85;1.90;;;27.10;72.10;;;;;;5118879;27;20544;-67
2022/07/04 08:50:10;;;;;;;7.20;1.85;;;27.30;72.90;;;;;;5116575;27;20168;-67
2022/07/04 08:52:40;;;;;;;6.80;1.92;;;26.90;71.80;;;;;;5116776;27;20111;-68
2022/07/04 09:00:44;;;;;;;7.38;2.13;;;26.90;70.50;;;;;;5110290;27;20050;-68
2022/07/04 09:03:10;;;;;;;8.38;2.55;;;27.10;71.30;;;;;;5133481;27;20460;-65
2022/07/04 09:05:36;;;;;;;7.82;2.00;;;27.00;71.70;;;;;;5155192;27;20130;-66
2022/07/04 09:08:03;;;;;;;5.78;2.20;;;26.70;71.80;;;;;;5112054;27;20074;-67
2022/07/04 09:10:29;;;;;;;4.15;1.67;;;26.80;71.70;;;;;;5116415;27;20051;-67
2022/07/04 09:12:55;;;;;;;8.35;1.80;;;26.60;72.10;;;;;;5146143;27;20383;-67
2022/07/04 09:15:21;;;;;;;7.30;2.13;;;26.70;72.20;;;;;;5136558;27;20035;-66
2022/07/04 09:17:47;;;;;;;5.60;1.73;;;26.60;72.40;;;;;;5133290;27;20051;-67
2022/07/04 09:20:13;;;;;;;6.15;1.60;;;26.20;71.90;;;;;;5091276;27;21635;-67
2022/07/04 09:22:38;;;;;;;5.47;2.03;;;26.00;71.70;;;;;;5120395;27;20050;-67
2022/07/04 09:25:05;;;;;;;6.03;2.13;;;26.20;72.10;;;;;;5133228;27;20100;-64
2022/07/04 09:27:32;;;;;;;5.85;2.05;;;26.10;71.90;;;;;;5131663;27;20132;-67
2022/07/04 09:29:58;;;;;;;6.07;2.10;;;26.10;72.60;;;;;;5134371;27;20050;-63
2022/07/04 09:32:46;;;;;;;8.35;2.25;;;25.70;72.10;;;;;;5130541;27;20047;-66
2022/07/04 09:35:22;;;;;;;6.60;1.70;;;25.90;71.70;;;;;;5124036;27;20058;-65
2022/07/04 09:37:52;;;;;;;6.18;1.75;;;25.90;71.40;;;;;;5113188;28;20062;-64
2022/07/04 09:40:24;;;;;;;5.35;1.65;;;25.90;73.30;;;;;;5133620;27;20395;-62
2022/07/04 09:42:50;;;;;;;4.82;1.42;;;25.40;76.30;;;;;;5109471;27;20054;-66
2022/07/04 09:45:15;;;;;;;5.30;1.77;;;25.70;72.80;;;;;;5116030;27;20408;-66
2022/07/04 09:47:41;;;;;;;5.88;1.85;;;25.60;73.00;;;;;;5116166;28;20215;-63
2022/07/04 09:50:18;;;;;;;7.40;1.92;;;25.80;73.20;;;;;;5133041;28;20050;-62
2022/07/04 09:53:05;;;;;;;4.22;1.60;;;25.70;72.00;;;;;;5115446;28;20485;-62
2022/07/04 09:55:35;;;;;;;5.38;2.25;;;25.70;74.00;;;;;;5109204;28;20047;-64
2022/07/04 09:58:05;;;;;;;3.78;1.50;;;25.50;73.80;;;;;;5112899;28;20057;-64
2022/07/04 10:00:44;;;;;;;7.45;2.35;;;25.70;76.50;;;;;;5113852;28;20043;-61
2022/07/04 10:03:16;;;;;;;6.70;2.65;;;25.70;72.50;;;;;;5133899;27;20054;-62
2022/07/04 10:05:42;;;;;;;5.90;2.35;;;25.90;73.70;;;;;;5134339;27;20035;-66
2022/07/04 10:08:08;;;;;;;8.77;3.08;;;25.70;73.20;;;;;;5132093;28;20476;-62
2022/07/04 10:10:35;;;;;;;6.75;3.38;;;25.70;73.20;;;;;;5132812;28;20039;-63
2022/07/04 10:13:09;;;;;;;11.73;8.93;;;25.90;73.20;;;;;;5115735;28;20054;-63
2022/07/04 10:15:39;;;;;;;17.35;12.27;;;25.70;72.90;;;;;;5103501;28;20051;-62
2022/07/04 10:18:06;;;;;;;15.65;11.45;;;26.00;75.40;;;;;;5116931;28;20392;-66
2022/07/04 10:20:32;;;;;;;12.40;10.52;;;25.80;72.10;;;;;;5141242;27;20081;-65
2022/07/04 10:22:58;;;;;;;16.50;14.45;;;25.70;72.00;;;;;;5119387;27;20445;-67
2022/07/04 10:25:24;;;;;;;16.52;13.98;;;25.80;75.60;;;;;;5119177;27;20059;-68
2022/07/04 10:27:51;;;;;;;15.43;13.75;;;25.90;75.30;;;;;;5134296;27;20046;-66
2022/07/04 10:30:37;;;;;;;15.80;13.90;;;25.90;72.20;;;;;;5129079;27;20133;-63
2022/07/04 10:33:04;;;;;;;15.63;13.07;;;26.00;72.60;;;;;;5120198;27;20380;-65
2022/07/04 10:35:55;;;;;;;13.77;12.05;;;26.10;72.40;;;;;;5088739;28;20067;-70
2022/07/04 10:38:26;;;;;;;13.95;12.20;;;26.30;71.50;;;;;;5074948;28;20052;-64
2022/07/04 10:40:54;;;;;;;10.82;7.68;;;26.20;72.70;;;;;;5082580;28;20052;-63
2022/07/04 10:43:38;;;;;;;9.77;6.78;;;26.20;72.40;;;;;;5086893;28;20101;-63
2022/07/04 10:46:15;;;;;;;7.30;4.78;;;26.00;71.10;;;;;;5095689;28;20052;-63
2022/07/04 10:48:53;;;;;;;6.95;4.05;;;26.10;71.00;;;;;;5078545;28;20052;-63
2022/07/04 10:52:03;;;;;;;8.52;4.22;;;26.20;71.20;;;;;;5093317;28;20044;-63
2022/07/04 10:54:32;;;;;;;5.72;2.95;;;26.20;70.90;;;;;;5035294;28;20089;-63
2022/07/04 10:57:16;;;;;;;6.38;2.92;;;26.30;72.20;;;;;;5053541;28;20529;-63
2022/07/04 10:59:44;;;;;;;6.57;4.07;;;26.00;70.10;;;;;;5053855;28;20045;-63
2022/07/04 11:02:13;;;;;;;9.23;3.70;;;26.10;71.70;;;;;;5019669;28;20049;-63
2022/07/04 11:04:57;;;;;;;7.47;2.80;;;26.40;71.70;;;;;;5053762;28;20049;-63
2022/07/04 11:07:29;;;;;;;6.10;2.88;;;26.10;71.50;;;;;;5053927;28;20049;-68
2022/07/04 11:10:13;;;;;;;6.85;3.90;;;26.30;70.10;;;;;;5037481;28;20059;-65
2022/07/04 11:12:54;;;;;;;9.52;5.18;;;26.30;71.80;;;;;;5048755;28;20144;-64
2022/07/04 11:15:41;;;;;;;7.32;3.95;;;26.40;71.70;;;;;;5038958;28;20521;-63
2022/07/04 11:18:12;;;;;;;9.20;4.22;;;26.10;71.60;;;;;;5047701;28;20550;-66
2022/07/04 11:20:43;;;;;;;7.57;5.13;;;26.40;71.80;;;;;;5040689;28;20538;-67
2022/07/04 11:23:13;;;;;;;9.38;6.28;;;26.30;71.70;;;;;;5012522;28;20085;-65
2022/07/04 11:25:41;;;;;;;9.60;5.75;;;26.40;71.70;;;;;;5008329;28;20569;-70
2022/07/04 11:28:25;;;;;;;7.15;4.10;;;26.30;71.30;;;;;;5016588;28;20045;-65
2022/07/04 11:30:51;;;;;;;6.03;3.53;;;26.40;71.50;;;;;;5027045;28;20481;-67
2022/07/04 11:33:18;;;;;;;7.00;4.30;;;26.60;71.50;;;;;;5036883;28;20056;-65
2022/07/04 11:35:44;;;;;;;7.40;4.20;;;26.40;71.30;;;;;;5055495;28;20049;-65
2022/07/04 11:38:10;;;;;;;9.38;4.80;;;26.50;71.10;;;;;;5037412;28;20056;-65
2022/07/04 11:46:13;;;;;;;8.18;4.93;;;26.50;70.10;;;;;;5066442;28;20049;-69
2022/07/04 11:48:39;;;;;;;7.35;3.80;;;26.60;71.30;;;;;;5053205;28;20056;-69
2022/07/04 11:51:16;;;;;;;7.70;3.88;;;26.50;70.90;;;;;;5035714;28;20086;-69
2022/07/04 11:53:42;;;;;;;10.00;6.25;;;26.40;71.30;;;;;;5053930;28;20048;-63
2022/07/04 11:56:09;;;;;;;8.38;4.80;;;26.20;70.60;;;;;;5036368;28;20102;-70
2022/07/04 11:58:42;;;;;;;9.20;6.40;;;26.10;69.40;;;;;;5054040;28;20053;-66
2022/07/04 12:01:09;;;;;;;9.82;5.80;;;26.10;71.00;;;;;;5051730;28;20498;-69
2022/07/04 12:03:36;;;;;;;8.55;5.50;;;26.30;70.80;;;;;;5036878;28;20044;-63
2022/07/04 12:06:02;;;;;;;7.90;4.30;;;26.40;70.70;;;;;;5050261;28;20133;-65
2022/07/04 12:08:28;;;;;;;7.10;4.70;;;26.30;71.10;;;;;;5054702;28;20048;-65
2022/07/04 12:10:54;;;;;;;8.73;4.20;;;26.20;70.60;;;;;;5052581;28;20044;-63
2022/07/04 12:13:20;;;;;;;7.25;4.00;;;26.40;70.60;;;;;;5054719;28;20494;-70
2022/07/04 12:15:48;;;;;;;6.20;4.32;;;26.50;70.70;;;;;;5055267;28;20116;-64
2022/07/04 12:18:29;;;;;;;4.88;2.72;;;26.10;70.70;;;;;;5069240;28;20059;-66
2022/07/04 12:20:54;;;;;;;18.95;3.15;;;26.40;71.30;;;;;;5075435;28;20493;-69
2022/07/04 12:23:25;;;;;;;34.63;4.88;;;26.30;70.20;;;;;;5085794;28;20045;-67
2022/07/04 12:25:51;;;;;;;20.33;4.03;;;26.70;70.80;;;;;;5076840;28;20059;-66
2022/07/04 12:28:18;;;;;;;37.10;4.85;;;26.60;70.90;;;;;;5056944;28;20139;-68
2022/07/04 12:30:51;;;;;;;22.08;4.60;;;26.50;70.20;;;;;;5074705;28;20048;-67
2022/07/04 12:33:22;;;;;;;41.10;5.78;;;26.20;70.70;;;;;;5073408;28;20058;-67
2022/07/04 12:35:52;;;;;;;37.80;4.60;;;26.50;71.00;;;;;;5094548;28;20105;-68
2022/07/04 12:38:27;;;;;;;25.42;4.53;;;26.40;70.50;;;;;;5094793;28;20453;-68
2022/07/04 12:41:07;;;;;;;29.30;5.25;;;26.40;70.80;;;;;;5095074;28;20439;-68
2022/07/04 12:43:42;;;;;;;35.03;4.22;;;26.20;73.30;;;;;;5078917;28;20111;-67
2022/07/04 12:46:11;;;;;;;18.15;3.67;;;26.40;70.10;;;;;;5073116;28;20052;-66
2022/07/04 12:48:37;;;;;;;12.13;3.20;;;26.60;69.20;;;;;;5073086;28;20052;-67
2022/07/04 12:51:12;;;;;;;22.10;4.72;;;26.50;70.20;;;;;;5056116;28;20127;-67
2022/07/04 12:53:42;;;;;;;15.85;4.63;;;26.40;70.60;;;;;;5073776;28;20520;-66
2022/07/04 12:56:08;;;;;;;12.50;4.43;;;26.50;70.20;;;;;;5058173;28;20044;-67
2022/07/04 12:58:34;;;;;;;13.98;4.88;;;26.20;69.30;;;;;;5075502;28;20050;-68
2022/07/04 13:01:00;;;;;;;18.17;6.60;;;26.50;70.00;;;;;;5076120;28;20039;-68
2022/07/04 13:03:26;;;;;;;16.40;5.60;;;26.30;69.60;;;;;;5093750;28;20044;-68
2022/07/04 13:05:52;;;;;;;12.43;5.50;;;26.60;69.60;;;;;;5092517;28;20036;-67
2022/07/04 13:08:17;;;;;;;17.75;6.82;;;26.60;69.90;;;;;;5059249;28;20052;-69